Time;durP1;ratioP1;P1;durP2;ratioP2;P2;SDS_P1;SDS_P2;PMS_P1;PMS_P2;Temp;Humidity;BMP_temperature;BMP_pressure;BME280_temperature;BME280_humidity;BME280_pressure;Samples;Min_cycle;Max_cycle;Signal;HPM_P1;HPM_P2
2023/01/18 00:00:10;;;;;;;6.97;3.03;;;;;;;;;;5074425;28;20254;-79
2023/01/18 00:02:36;;;;;;;10.17;2.50;;;;;;;;;;5060865;28;20292;-81
2023/01/18 00:05:04;;;;;;;4.33;2.40;;;;;;;;;;5062619;28;20205;-79
2023/01/18 00:07:31;;;;;;;4.93;2.60;;;;;;;;;;5059627;28;20205;-79
2023/01/18 00:09:58;;;;;;;11.63;2.63;;;;;;;;;;5062091;28;20267;-80
2023/01/18 00:12:24;;;;;;;7.93;2.30;;;;;;;;;;5054390;28;20214;-79
2023/01/18 00:14:52;;;;;;;6.17;2.40;;;;;;;;;;5065866;28;20282;-79
2023/01/18 00:17:19;;;;;;;6.27;2.10;;;;;;;;;;5060868;28;20205;-79
2023/01/18 00:19:46;;;;;;;5.53;2.30;;;;;;;;;;5061466;28;20623;-79
2023/01/18 00:22:13;;;;;;;12.60;3.03;;;;;;;;;;5067296;28;20657;-79
2023/01/18 00:24:39;;;;;;;6.07;2.93;;;;;;;;;;5054022;28;20194;-79
2023/01/18 00:27:09;;;;;;;9.13;3.03;;;;;;;;;;5073416;28;20255;-79
2023/01/18 00:29:35;;;;;;;4.23;2.20;;;;;;;;;;5061077;28;20205;-80
2023/01/18 00:32:04;;;;;;;9.33;2.57;;;;;;;;;;5066563;28;20194;-79
2023/01/18 00:34:31;;;;;;;8.07;2.50;;;;;;;;;;5053361;28;20218;-79
2023/01/18 00:36:58;;;;;;;7.50;2.27;;;;;;;;;;5054088;28;20202;-79
2023/01/18 00:39:24;;;;;;;3.40;1.50;;;;;;;;;;5066976;28;20212;-80
2023/01/18 00:44:35;;;;;;;3.47;2.67;;;;;;;;;;5060292;28;20255;-79
2023/01/18 00:47:03;;;;;;;6.00;2.23;;;;;;;;;;5073693;28;20213;-79
2023/01/18 00:49:30;;;;;;;4.93;2.43;;;;;;;;;;5069817;28;20205;-79
2023/01/18 00:51:57;;;;;;;2.63;1.00;;;;;;;;;;5064365;28;20213;-80
2023/01/18 00:54:23;;;;;;;6.57;2.20;;;;;;;;;;5069818;28;20222;-80
2023/01/18 00:56:50;;;;;;;11.80;3.63;;;;;;;;;;5053386;28;20642;-84
2023/01/18 00:59:17;;;;;;;2.60;1.73;;;;;;;;;;5067067;28;20221;-79
2023/01/18 01:01:44;;;;;;;10.50;2.67;;;;;;;;;;5053811;28;20285;-79
2023/01/18 01:06:57;;;;;;;9.07;2.70;;;;;;;;;;5067142;28;20207;-80
2023/01/18 01:09:25;;;;;;;9.73;3.07;;;;;;;;;;5073441;28;20209;-80
2023/01/18 01:28:24;;;;;;;6.67;2.10;;;;;;;;;;5066477;28;20212;-79
2023/01/18 01:30:50;;;;;;;9.47;2.57;;;;;;;;;;5063829;28;20246;-79
2023/01/18 01:33:18;;;;;;;7.67;2.03;;;;;;;;;;5055294;28;20225;-80
2023/01/18 01:35:46;;;;;;;5.83;1.90;;;;;;;;;;5052958;28;20281;-79
2023/01/18 01:38:13;;;;;;;11.30;3.30;;;;;;;;;;5066057;28;20275;-79
2023/01/18 01:40:40;;;;;;;10.90;3.27;;;;;;;;;;5063818;28;20212;-80
2023/01/18 01:43:11;;;;;;;9.43;4.30;;;;;;;;;;5059394;28;20197;-80
2023/01/18 01:45:38;;;;;;;10.40;4.43;;;;;;;;;;5071982;28;20201;-80
2023/01/18 01:48:05;;;;;;;5.67;1.87;;;;;;;;;;5067100;28;20256;-80
2023/01/18 01:50:36;;;;;;;6.47;2.77;;;;;;;;;;5064708;28;20209;-80
2023/01/18 01:53:05;;;;;;;7.70;3.20;;;;;;;;;;5052325;28;20201;-79
2023/01/18 01:55:33;;;;;;;8.20;2.57;;;;;;;;;;5065733;28;20220;-80
2023/01/18 01:58:02;;;;;;;7.97;2.77;;;;;;;;;;5046167;28;20240;-80
2023/01/18 02:00:29;;;;;;;9.83;3.20;;;;;;;;;;5071731;28;20572;-80
2023/01/18 02:02:58;;;;;;;6.17;2.23;;;;;;;;;;5059694;28;20200;-80
2023/01/18 02:05:26;;;;;;;6.40;2.33;;;;;;;;;;5058624;28;20209;-80
2023/01/18 02:07:53;;;;;;;8.80;2.90;;;;;;;;;;5064344;28;20247;-79
2023/01/18 02:10:21;;;;;;;4.80;2.13;;;;;;;;;;5065348;28;20654;-79
2023/01/18 02:12:49;;;;;;;9.87;2.63;;;;;;;;;;5052183;28;20212;-79
2023/01/18 02:15:16;;;;;;;8.17;2.00;;;;;;;;;;5054715;28;20275;-79
2023/01/18 02:18:00;;;;;;;5.07;2.20;;;;;;;;;;5071704;28;20213;-80
2023/01/18 02:20:51;;;;;;;6.87;3.03;;;;;;;;;;5066190;28;20209;-80
2023/01/18 02:23:54;;;;;;;7.17;2.40;;;;;;;;;;5041591;28;20625;-79
2023/01/18 02:26:52;;;;;;;4.43;2.00;;;;;;;;;;5031023;28;20282;-80
2023/01/18 02:29:25;;;;;;;4.07;2.10;;;;;;;;;;5065331;28;20313;-79
2023/01/18 02:32:03;;;;;;;10.27;3.20;;;;;;;;;;5050232;28;20209;-80
2023/01/18 02:34:37;;;;;;;8.27;2.77;;;;;;;;;;5060599;28;20228;-80
2023/01/18 02:37:09;;;;;;;5.13;2.47;;;;;;;;;;5054510;28;20200;-80
2023/01/18 02:39:42;;;;;;;8.67;2.60;;;;;;;;;;5062873;28;20242;-80
2023/01/18 02:47:47;;;;;;;11.37;3.00;;;;;;;;;;5071220;28;20208;-81
2023/01/18 02:50:22;;;;;;;9.50;3.23;;;;;;;;;;5052834;28;20205;-80
2023/01/18 02:52:50;;;;;;;7.90;2.13;;;;;;;;;;5051303;28;20284;-80
2023/01/18 02:55:24;;;;;;;4.73;2.00;;;;;;;;;;5062577;28;20224;-80
2023/01/18 02:57:52;;;;;;;7.00;2.70;;;;;;;;;;5051752;28;20238;-81
2023/01/18 03:00:22;;;;;;;7.00;2.83;;;;;;;;;;5063539;28;20206;-80
2023/01/18 03:02:49;;;;;;;3.07;2.30;;;;;;;;;;5050639;28;20198;-81
2023/01/18 03:05:16;;;;;;;10.90;3.00;;;;;;;;;;5053598;28;20582;-81
2023/01/18 03:07:47;;;;;;;9.87;2.53;;;;;;;;;;5051488;28;20194;-80
2023/01/18 03:10:15;;;;;;;9.33;3.00;;;;;;;;;;5053435;28;20688;-80
2023/01/18 03:12:49;;;;;;;8.47;2.87;;;;;;;;;;5071081;28;20204;-80
2023/01/18 03:15:22;;;;;;;20.53;10.63;;;;;;;;;;5057668;28;20327;-80
2023/01/18 03:17:51;;;;;;;8.97;4.70;;;;;;;;;;5070996;28;20590;-80
2023/01/18 03:20:24;;;;;;;10.20;3.30;;;;;;;;;;5057662;28;20205;-80
2023/01/18 03:25:40;;;;;;;13.83;5.70;;;;;;;;;;5059620;28;20212;-81
2023/01/18 03:33:45;;;;;;;9.33;3.30;;;;;;;;;;5050760;28;20308;-81
2023/01/18 03:36:16;;;;;;;14.93;6.30;;;;;;;;;;5050914;28;20205;-80
2023/01/18 03:38:45;;;;;;;7.30;3.67;;;;;;;;;;5056329;28;20695;-81
2023/01/18 03:41:13;;;;;;;10.07;3.27;;;;;;;;;;5050675;28;20591;-81
2023/01/18 03:43:40;;;;;;;8.73;3.73;;;;;;;;;;5050636;28;20224;-81
2023/01/18 03:46:09;;;;;;;26.07;13.60;;;;;;;;;;5065841;28;20200;-81
2023/01/18 03:48:36;;;;;;;8.87;3.67;;;;;;;;;;5071114;28;20205;-80
2023/01/18 03:51:10;;;;;;;13.80;4.30;;;;;;;;;;5053780;28;20680;-81
2023/01/18 03:53:42;;;;;;;9.90;3.40;;;;;;;;;;5050734;28;20210;-80
2023/01/18 03:56:13;;;;;;;6.03;2.77;;;;;;;;;;5068707;28;20208;-80
2023/01/18 03:58:41;;;;;;;12.37;3.93;;;;;;;;;;5058535;28;20234;-81
2023/01/18 04:01:09;;;;;;;7.80;3.80;;;;;;;;;;5061838;28;20203;-81
2023/01/18 04:03:36;;;;;;;7.37;3.17;;;;;;;;;;5058934;28;20209;-81
2023/01/18 04:06:05;;;;;;;9.50;4.53;;;;;;;;;;5056295;28;20202;-82
2023/01/18 04:08:32;;;;;;;8.90;3.47;;;;;;;;;;5055225;28;20205;-81
2023/01/18 04:10:58;;;;;;;7.63;4.00;;;;;;;;;;5050206;28;20194;-80
2023/01/18 04:13:25;;;;;;;8.93;4.17;;;;;;;;;;5052097;28;20210;-81
2023/01/18 04:15:52;;;;;;;8.20;2.53;;;;;;;;;;5054041;28;20232;-80
2023/01/18 04:18:20;;;;;;;3.70;2.37;;;;;;;;;;5055591;28;20210;-80
2023/01/18 04:20:47;;;;;;;12.47;4.33;;;;;;;;;;5065579;28;20201;-81
2023/01/18 04:23:14;;;;;;;5.77;3.13;;;;;;;;;;5054519;28;20202;-81
2023/01/18 04:25:48;;;;;;;11.00;3.57;;;;;;;;;;5054052;28;20261;-81
2023/01/18 04:28:15;;;;;;;10.57;3.70;;;;;;;;;;5067379;28;20594;-80
2023/01/18 04:30:42;;;;;;;5.10;2.90;;;;;;;;;;5054227;28;20243;-80
2023/01/18 04:33:08;;;;;;;7.23;2.90;;;;;;;;;;5067492;28;20206;-81
2023/01/18 04:35:37;;;;;;;7.47;2.67;;;;;;;;;;5053626;28;20704;-81
2023/01/18 04:38:03;;;;;;;9.47;2.90;;;;;;;;;;5066921;28;20212;-80
2023/01/18 04:40:30;;;;;;;10.37;3.00;;;;;;;;;;5053800;28;20206;-81
2023/01/18 04:42:57;;;;;;;10.70;3.17;;;;;;;;;;5053566;28;20198;-80
2023/01/18 04:45:23;;;;;;;6.37;1.87;;;;;;;;;;5054179;28;20260;-80
2023/01/18 04:47:50;;;;;;;11.83;4.07;;;;;;;;;;5053148;28;20217;-79
2023/01/18 04:50:17;;;;;;;4.00;1.93;;;;;;;;;;5055954;28;20288;-79
2023/01/18 04:52:45;;;;;;;7.87;3.23;;;;;;;;;;5050761;28;20202;-80
2023/01/18 04:55:14;;;;;;;5.97;2.20;;;;;;;;;;5052798;28;20662;-80
2023/01/18 04:57:42;;;;;;;6.47;3.47;;;;;;;;;;5066202;28;20320;-79
2023/01/18 05:00:10;;;;;;;7.40;2.23;;;;;;;;;;5064253;28;20205;-80
2023/01/18 05:02:37;;;;;;;8.20;2.53;;;;;;;;;;5060079;28;20207;-81
2023/01/18 05:05:05;;;;;;;11.20;3.77;;;;;;;;;;5059658;28;20202;-81
2023/01/18 05:07:33;;;;;;;4.13;2.10;;;;;;;;;;5044902;28;20656;-80
2023/01/18 05:10:01;;;;;;;11.93;3.20;;;;;;;;;;5060484;28;20292;-80
2023/01/18 05:12:28;;;;;;;11.77;3.77;;;;;;;;;;5055677;28;20653;-80
2023/01/18 05:14:55;;;;;;;8.77;3.80;;;;;;;;;;5072562;28;20233;-81
2023/01/18 05:17:26;;;;;;;5.50;2.40;;;;;;;;;;5073017;28;20208;-80
2023/01/18 05:19:53;;;;;;;8.57;1.83;;;;;;;;;;5065396;28;20209;-80
2023/01/18 05:22:20;;;;;;;10.53;3.00;;;;;;;;;;5072727;28;20201;-78
2023/01/18 05:24:47;;;;;;;9.40;3.80;;;;;;;;;;5060565;28;20288;-80
2023/01/18 05:27:16;;;;;;;8.93;2.23;;;;;;;;;;5052490;28;20746;-80
2023/01/18 05:29:42;;;;;;;12.10;3.70;;;;;;;;;;5052675;28;20206;-80
2023/01/18 05:32:10;;;;;;;8.77;5.00;;;;;;;;;;5052392;28;20202;-80
2023/01/18 05:34:37;;;;;;;8.40;4.17;;;;;;;;;;5052743;28;20226;-79
2023/01/18 05:37:04;;;;;;;15.60;6.13;;;;;;;;;;5052852;28;20205;-79
2023/01/18 05:39:31;;;;;;;5.80;3.43;;;;;;;;;;5052602;28;20218;-79
2023/01/18 05:41:57;;;;;;;7.80;3.93;;;;;;;;;;5057259;28;20197;-79
2023/01/18 05:44:26;;;;;;;14.57;6.43;;;;;;;;;;5052639;28;20201;-80
2023/01/18 05:46:53;;;;;;;4.80;2.30;;;;;;;;;;5038284;28;20221;-79
2023/01/18 05:49:19;;;;;;;10.90;4.37;;;;;;;;;;5051675;28;20194;-80
2023/01/18 05:51:46;;;;;;;10.10;5.13;;;;;;;;;;5058659;28;20667;-80
2023/01/18 05:54:13;;;;;;;14.03;5.43;;;;;;;;;;5058929;28;20700;-81
2023/01/18 05:56:40;;;;;;;19.50;6.43;;;;;;;;;;5071123;28;20680;-80
2023/01/18 05:59:07;;;;;;;10.60;4.13;;;;;;;;;;5071372;28;20324;-80
2023/01/18 06:01:35;;;;;;;11.60;4.03;;;;;;;;;;5072105;28;20208;-80
2023/01/18 06:04:02;;;;;;;6.77;3.03;;;;;;;;;;5071546;28;20201;-79
2023/01/18 06:06:29;;;;;;;5.93;2.30;;;;;;;;;;5072093;28;20567;-78
2023/01/18 06:08:56;;;;;;;8.27;3.23;;;;;;;;;;5071381;28;20204;-79
2023/01/18 06:11:22;;;;;;;8.47;6.10;;;;;;;;;;5061499;28;20213;-80
2023/01/18 06:13:50;;;;;;;21.00;3.97;;;;;;;;;;5064935;28;20198;-79
2023/01/18 06:16:16;;;;;;;13.87;6.57;;;;;;;;;;5052016;28;20249;-79
2023/01/18 06:18:45;;;;;;;9.03;5.33;;;;;;;;;;5065401;28;20263;-79
2023/01/18 06:21:12;;;;;;;5.60;2.97;;;;;;;;;;5062252;28;20262;-79
2023/01/18 06:23:39;;;;;;;8.33;2.43;;;;;;;;;;5071676;28;20216;-80
2023/01/18 06:26:06;;;;;;;9.33;3.83;;;;;;;;;;5071917;28;20335;-79
2023/01/18 06:28:33;;;;;;;12.40;3.80;;;;;;;;;;5067400;28;20210;-79
2023/01/18 06:31:03;;;;;;;8.23;4.20;;;;;;;;;;5051069;28;20197;-80
2023/01/18 06:33:30;;;;;;;9.67;4.43;;;;;;;;;;5069681;28;20215;-79
2023/01/18 06:36:00;;;;;;;11.60;3.60;;;;;;;;;;5059693;28;20220;-79
2023/01/18 06:38:27;;;;;;;25.90;4.07;;;;;;;;;;5064155;28;20206;-79
2023/01/18 06:40:54;;;;;;;9.70;4.17;;;;;;;;;;5064441;28;20209;-79
2023/01/18 06:43:21;;;;;;;14.23;5.57;;;;;;;;;;5064821;28;20267;-80
2023/01/18 06:45:52;;;;;;;8.33;2.97;;;;;;;;;;5064261;28;20643;-79
2023/01/18 06:48:20;;;;;;;8.80;2.53;;;;;;;;;;5045683;28;20699;-79
2023/01/18 06:50:48;;;;;;;6.97;3.00;;;;;;;;;;5057840;28;20210;-80
2023/01/18 06:53:16;;;;;;;4.57;2.67;;;;;;;;;;5063423;28;20213;-80
2023/01/18 06:55:43;;;;;;;9.33;5.07;;;;;;;;;;5052417;28;20696;-80
2023/01/18 06:58:09;;;;;;;7.17;4.80;;;;;;;;;;5062912;28;20229;-80
2023/01/18 07:00:37;;;;;;;4.27;2.57;;;;;;;;;;5064240;28;20205;-80
2023/01/18 07:03:04;;;;;;;9.47;4.60;;;;;;;;;;5059926;28;20653;-80
2023/01/18 07:05:31;;;;;;;7.40;4.03;;;;;;;;;;5057575;28;20198;-80
2023/01/18 07:07:57;;;;;;;9.60;2.80;;;;;;;;;;5071374;28;20200;-79
2023/01/18 07:10:26;;;;;;;15.30;5.43;;;;;;;;;;5054874;28;20229;-80
2023/01/18 07:12:52;;;;;;;17.93;3.27;;;;;;;;;;5050723;28;20209;-79
2023/01/18 07:15:19;;;;;;;12.13;4.07;;;;;;;;;;5053796;28;20221;-79
2023/01/18 07:17:46;;;;;;;11.53;3.43;;;;;;;;;;5071254;28;20204;-80
2023/01/18 07:20:15;;;;;;;5.50;2.87;;;;;;;;;;5053761;28;20197;-79
2023/01/18 07:22:41;;;;;;;17.40;3.60;;;;;;;;;;5050707;28;20214;-80
2023/01/18 07:25:12;;;;;;;22.63;3.90;;;;;;;;;;5050631;28;20214;-80
2023/01/18 07:27:41;;;;;;;18.10;7.23;;;;;;;;;;5062090;28;20205;-80
2023/01/18 07:30:11;;;;;;;12.90;4.03;;;;;;;;;;5070361;28;20208;-80
2023/01/18 07:32:38;;;;;;;5.10;2.83;;;;;;;;;;5070789;28;20239;-80
2023/01/18 07:35:06;;;;;;;12.10;4.73;;;;;;;;;;5050816;28;20283;-80
2023/01/18 07:37:34;;;;;;;11.47;3.13;;;;;;;;;;5063115;28;20205;-80
2023/01/18 07:40:01;;;;;;;6.17;2.53;;;;;;;;;;5050873;28;20194;-80
2023/01/18 07:42:28;;;;;;;19.73;6.50;;;;;;;;;;5063653;28;20209;-80
2023/01/18 07:44:56;;;;;;;14.07;5.70;;;;;;;;;;5037396;28;20259;-80
2023/01/18 07:47:23;;;;;;;9.80;4.03;;;;;;;;;;5063912;28;20629;-80
2023/01/18 07:49:50;;;;;;;13.10;3.53;;;;;;;;;;5053923;28;20754;-80
2023/01/18 07:52:17;;;;;;;9.77;4.37;;;;;;;;;;5067794;28;20279;-80
2023/01/18 07:54:44;;;;;;;7.63;3.53;;;;;;;;;;5054263;28;20197;-80
2023/01/18 07:57:11;;;;;;;9.33;3.23;;;;;;;;;;5054112;28;20229;-83
2023/01/18 07:59:38;;;;;;;12.03;4.63;;;;;;;;;;5047839;28;20201;-81
2023/01/18 08:02:11;;;;;;;11.50;3.07;;;;;;;;;;5073921;28;20201;-81
2023/01/18 08:04:38;;;;;;;12.23;4.87;;;;;;;;;;5062628;28;20296;-80
2023/01/18 08:07:05;;;;;;;12.93;4.27;;;;;;;;;;5072468;28;20206;-80
2023/01/18 08:09:32;;;;;;;5.37;3.63;;;;;;;;;;5054206;28;20260;-81
2023/01/18 08:11:59;;;;;;;18.70;5.43;;;;;;;;;;5067462;28;20205;-80
2023/01/18 08:14:26;;;;;;;7.50;3.00;;;;;;;;;;5054434;28;20201;-81
2023/01/18 08:16:53;;;;;;;11.87;3.93;;;;;;;;;;5056504;28;21796;-81
2023/01/18 08:19:21;;;;;;;8.27;3.97;;;;;;;;;;5064094;28;20258;-81
2023/01/18 08:21:48;;;;;;;12.70;3.97;;;;;;;;;;5053610;28;20210;-81
2023/01/18 08:24:15;;;;;;;10.33;3.07;;;;;;;;;;5064265;28;20208;-81
2023/01/18 08:26:42;;;;;;;9.40;4.53;;;;;;;;;;5056787;28;20249;-85
2023/01/18 08:29:09;;;;;;;8.20;3.30;;;;;;;;;;5053910;28;20202;-80
2023/01/18 08:31:36;;;;;;;9.80;3.17;;;;;;;;;;5066736;28;20215;-80
2023/01/18 08:34:02;;;;;;;13.43;4.93;;;;;;;;;;5053603;28;20649;-81
2023/01/18 08:36:30;;;;;;;6.93;2.40;;;;;;;;;;5071177;28;20218;-80
2023/01/18 08:38:57;;;;;;;10.30;4.43;;;;;;;;;;5071156;28;20262;-81
2023/01/18 08:41:27;;;;;;;12.23;3.97;;;;;;;;;;5068703;28;20209;-81
2023/01/18 08:43:54;;;;;;;12.10;2.63;;;;;;;;;;5065452;28;20572;-81
2023/01/18 08:46:21;;;;;;;8.67;2.60;;;;;;;;;;5068415;28;20239;-81
2023/01/18 08:48:50;;;;;;;10.47;3.00;;;;;;;;;;5053680;28;20221;-81
2023/01/18 08:51:17;;;;;;;6.27;2.37;;;;;;;;;;5053264;28;20198;-82
2023/01/18 08:53:46;;;;;;;6.70;2.50;;;;;;;;;;5053475;28;20245;-82
2023/01/18 08:56:13;;;;;;;12.27;2.83;;;;;;;;;;5052420;28;20221;-80
2023/01/18 08:58:40;;;;;;;12.13;3.53;;;;;;;;;;5066095;28;20684;-81
2023/01/18 09:01:07;;;;;;;8.80;2.40;;;;;;;;;;5066270;28;20205;-81
2023/01/18 09:03:35;;;;;;;8.97;2.83;;;;;;;;;;5053484;28;20213;-81
2023/01/18 09:06:03;;;;;;;11.17;2.37;;;;;;;;;;5059440;28;20756;-81
2023/01/18 09:08:30;;;;;;;7.90;2.77;;;;;;;;;;5073565;28;20259;-81
2023/01/18 09:11:03;;;;;;;8.53;2.73;;;;;;;;;;5066089;28;20194;-81
2023/01/18 09:13:30;;;;;;;9.67;2.10;;;;;;;;;;5053029;28;20611;-81
2023/01/18 09:16:00;;;;;;;8.43;1.90;;;;;;;;;;5052755;28;20222;-82
2023/01/18 09:18:28;;;;;;;9.10;2.87;;;;;;;;;;5066446;28;20291;-81
2023/01/18 09:20:55;;;;;;;7.30;2.20;;;;;;;;;;5052941;28;20288;-81
2023/01/18 09:23:22;;;;;;;12.07;2.60;;;;;;;;;;5053254;28;20260;-81
2023/01/18 09:25:50;;;;;;;9.17;2.40;;;;;;;;;;5062411;28;20573;-81
2023/01/18 09:28:18;;;;;;;7.10;2.77;;;;;;;;;;5055739;28;20197;-81
2023/01/18 09:30:45;;;;;;;7.47;2.47;;;;;;;;;;5052584;28;20251;-82
2023/01/18 09:33:11;;;;;;;6.70;2.37;;;;;;;;;;5057038;28;20648;-81
2023/01/18 09:35:38;;;;;;;7.53;2.60;;;;;;;;;;5061678;28;20195;-81
2023/01/18 09:38:06;;;;;;;6.27;2.20;;;;;;;;;;5065834;28;20690;-81
2023/01/18 09:40:40;;;;;;;9.93;2.50;;;;;;;;;;5052173;28;20216;-81
2023/01/18 09:43:15;;;;;;;4.97;2.43;;;;;;;;;;5058896;28;20207;-81
2023/01/18 09:45:47;;;;;;;9.03;2.30;;;;;;;;;;5058517;28;20213;-81
2023/01/18 09:48:20;;;;;;;5.80;1.97;;;;;;;;;;5052617;28;20670;-81
2023/01/18 09:50:47;;;;;;;4.23;1.70;;;;;;;;;;5065083;28;20198;-81
2023/01/18 09:53:20;;;;;;;8.70;2.13;;;;;;;;;;5052424;28;20749;-81
2023/01/18 09:55:52;;;;;;;4.47;2.00;;;;;;;;;;5065876;28;20290;-81
2023/01/18 09:58:32;;;;;;;6.67;1.83;;;;;;;;;;5061817;28;20229;-81
2023/01/18 10:01:04;;;;;;;6.53;1.80;;;;;;;;;;5053658;28;20566;-80
2023/01/18 10:03:35;;;;;;;5.93;2.40;;;;;;;;;;5052153;28;20202;-81
2023/01/18 10:06:08;;;;;;;8.03;3.13;;;;;;;;;;5058531;28;20201;-81
2023/01/18 10:08:39;;;;;;;8.67;2.30;;;;;;;;;;5058157;28;20703;-81
2023/01/18 10:11:09;;;;;;;8.47;2.13;;;;;;;;;;5063582;28;20435;-80
2023/01/18 10:13:44;;;;;;;11.33;3.03;;;;;;;;;;5052256;28;20287;-80
2023/01/18 10:16:17;;;;;;;6.53;1.60;;;;;;;;;;5052171;28;20594;-80
2023/01/18 10:18:47;;;;;;;6.63;2.17;;;;;;;;;;5056106;28;20199;-80
2023/01/18 10:21:20;;;;;;;8.00;2.67;;;;;;;;;;5071528;28;20206;-81
2023/01/18 10:23:58;;;;;;;7.60;2.63;;;;;;;;;;5058276;28;20198;-81
2023/01/18 10:26:29;;;;;;;7.10;3.10;;;;;;;;;;5057929;28;20215;-81
2023/01/18 10:29:01;;;;;;;5.43;2.00;;;;;;;;;;5063483;28;20211;-81
2023/01/18 10:31:40;;;;;;;14.93;3.40;;;;;;;;;;5051268;28;20670;-81
2023/01/18 10:34:14;;;;;;;14.03;3.43;;;;;;;;;;5062722;28;20199;-80
2023/01/18 10:36:43;;;;;;;7.03;2.40;;;;;;;;;;5052382;28;20308;-81
2023/01/18 10:39:24;;;;;;;5.37;2.97;;;;;;;;;;5051303;28;20211;-81
2023/01/18 10:41:51;;;;;;;7.70;2.60;;;;;;;;;;5038913;28;20690;-81
2023/01/18 10:44:18;;;;;;;30.33;12.60;;;;;;;;;;5064467;28;20207;-81
2023/01/18 10:46:47;;;;;;;7.47;4.10;;;;;;;;;;5059607;28;20209;-81
2023/01/18 10:49:35;;;;;;;9.47;4.87;;;;;;;;;;5069223;28;20198;-81
2023/01/18 10:52:26;;;;;;;7.20;4.27;;;;;;;;;;5051099;28;20253;-81
2023/01/18 10:54:56;;;;;;;6.03;2.43;;;;;;;;;;5040032;28;20213;-81
2023/01/18 10:57:26;;;;;;;8.93;4.10;;;;;;;;;;5050638;28;20267;-81
2023/01/18 10:59:53;;;;;;;6.77;2.97;;;;;;;;;;5051280;28;20201;-81
2023/01/18 11:02:26;;;;;;;7.17;3.50;;;;;;;;;;5064463;28;20266;-81
2023/01/18 11:04:56;;;;;;;9.47;2.60;;;;;;;;;;5050895;28;20680;-81
2023/01/18 11:07:26;;;;;;;4.27;2.20;;;;;;;;;;5054672;28;20211;-81
2023/01/18 11:09:54;;;;;;;4.77;2.20;;;;;;;;;;5060155;28;20204;-81
2023/01/18 11:12:33;;;;;;;8.63;2.43;;;;;;;;;;5069400;28;20294;-80
2023/01/18 11:15:21;;;;;;;6.23;2.10;;;;;;;;;;5057528;28;20209;-82
2023/01/18 11:18:01;;;;;;;10.33;2.20;;;;;;;;;;5040367;28;20236;-81
2023/01/18 11:20:32;;;;;;;4.70;1.83;;;;;;;;;;5055479;28;20197;-81
2023/01/18 11:23:02;;;;;;;10.07;2.03;;;;;;;;;;5070270;28;20786;-80
2023/01/18 11:25:36;;;;;;;4.43;1.60;;;;;;;;;;5057643;28;20197;-81
2023/01/18 11:28:06;;;;;;;10.67;2.67;;;;;;;;;;5057281;28;20207;-81
2023/01/18 11:30:33;;;;;;;10.87;2.67;;;;;;;;;;5070735;28;20204;-80
2023/01/18 11:33:01;;;;;;;6.83;2.90;;;;;;;;;;5057662;28;20214;-80
2023/01/18 11:35:35;;;;;;;11.50;3.00;;;;;;;;;;5061722;28;20215;-81
2023/01/18 11:38:05;;;;;;;8.17;2.33;;;;;;;;;;5064203;28;20218;-80
2023/01/18 11:40:35;;;;;;;5.37;2.30;;;;;;;;;;5060596;28;20236;-81
2023/01/18 11:43:08;;;;;;;9.07;4.13;;;;;;;;;;5066234;28;20201;-80
2023/01/18 11:45:39;;;;;;;8.50;3.13;;;;;;;;;;5050714;28;20879;-81
2023/01/18 11:48:11;;;;;;;10.17;5.97;;;;;;;;;;5056472;28;20201;-81
2023/01/18 11:50:42;;;;;;;19.70;7.93;;;;;;;;;;5057576;28;20240;-80
2023/01/18 11:53:16;;;;;;;7.00;3.30;;;;;;;;;;5038434;28;20305;-80
2023/01/18 11:55:47;;;;;;;6.63;3.03;;;;;;;;;;5051030;28;20201;-81
2023/01/18 11:58:20;;;;;;;9.37;2.43;;;;;;;;;;5058947;28;20271;-80
2023/01/18 12:00:54;;;;;;;8.80;2.60;;;;;;;;;;5070457;28;20213;-84
2023/01/18 12:03:40;;;;;;;8.60;2.77;;;;;;;;;;5070698;28;20212;-81
2023/01/18 12:06:13;;;;;;;28.13;4.07;;;;;;;;;;5064089;28;20209;-80
2023/01/18 12:08:56;;;;;;;13.33;3.27;;;;;;;;;;5063884;28;20208;-81
2023/01/18 12:11:43;;;;;;;13.53;3.37;;;;;;;;;;5050424;28;20210;-81
2023/01/18 12:14:17;;;;;;;11.73;2.93;;;;;;;;;;5056712;28;20729;-80
2023/01/18 12:16:55;;;;;;;7.60;3.03;;;;;;;;;;5056635;28;20233;-80
2023/01/18 12:19:43;;;;;;;10.37;2.13;;;;;;;;;;5061594;28;20214;-80
2023/01/18 12:22:36;;;;;;;16.33;3.73;;;;;;;;;;5064068;28;20214;-81
2023/01/18 12:25:17;;;;;;;6.73;2.60;;;;;;;;;;5063738;28;20288;-81
2023/01/18 12:27:50;;;;;;;14.27;3.20;;;;;;;;;;5070475;28;20201;-80
2023/01/18 12:30:28;;;;;;;4.10;1.80;;;;;;;;;;5057142;28;20201;-80
2023/01/18 12:33:19;;;;;;;7.33;2.70;;;;;;;;;;5070036;28;20684;-81
2023/01/18 12:36:08;;;;;;;11.43;2.77;;;;;;;;;;5061225;28;20667;-80
2023/01/18 12:38:35;;;;;;;9.13;3.03;;;;;;;;;;5041113;28;20234;-80
2023/01/18 12:41:18;;;;;;;12.07;2.97;;;;;;;;;;5053657;28;20647;-80
2023/01/18 12:43:50;;;;;;;9.03;3.37;;;;;;;;;;5054045;28;20222;-80
2023/01/18 12:46:20;;;;;;;16.33;4.03;;;;;;;;;;5070687;28;20215;-80
2023/01/18 12:48:50;;;;;;;15.50;3.30;;;;;;;;;;5074032;28;20514;-80
2023/01/18 12:51:20;;;;;;;15.17;2.90;;;;;;;;;;5060462;28;20205;-81
2023/01/18 12:53:48;;;;;;;13.70;3.87;;;;;;;;;;5062011;28;20201;-81
2023/01/18 12:56:18;;;;;;;12.50;3.93;;;;;;;;;;5066599;28;20625;-81
2023/01/18 12:58:47;;;;;;;14.07;3.00;;;;;;;;;;5066417;28;20728;-80
2023/01/18 13:01:20;;;;;;;8.00;3.07;;;;;;;;;;5047343;28;20199;-80
2023/01/18 13:03:51;;;;;;;16.07;2.80;;;;;;;;;;5072424;28;20228;-81
2023/01/18 13:06:20;;;;;;;10.07;3.03;;;;;;;;;;5061682;28;20668;-80
2023/01/18 13:08:50;;;;;;;8.57;3.27;;;;;;;;;;5071316;28;20216;-80
2023/01/18 13:11:21;;;;;;;17.40;4.50;;;;;;;;;;5062317;28;20197;-80
2023/01/18 13:13:50;;;;;;;8.10;2.63;;;;;;;;;;5060332;28;20205;-80
2023/01/18 13:16:32;;;;;;;16.93;4.00;;;;;;;;;;5073640;28;20729;-82
2023/01/18 13:19:02;;;;;;;12.63;4.33;;;;;;;;;;5059976;28;20261;-81
2023/01/18 13:21:41;;;;;;;11.20;5.07;;;;;;;;;;5060426;28;20201;-80
2023/01/18 13:24:14;;;;;;;23.00;9.50;;;;;;;;;;5049950;28;20687;-80
2023/01/18 13:26:42;;;;;;;19.87;6.30;;;;;;;;;;5069860;28;20721;-80
2023/01/18 13:29:16;;;;;;;13.33;4.77;;;;;;;;;;5062468;28;20684;-80
2023/01/18 13:31:43;;;;;;;14.53;5.53;;;;;;;;;;5054928;28;20225;-80
2023/01/18 13:34:32;;;;;;;17.80;5.30;;;;;;;;;;5052763;28;20202;-80
2023/01/18 13:37:02;;;;;;;15.80;5.30;;;;;;;;;;5060262;28;20580;-81
2023/01/18 13:39:30;;;;;;;9.33;3.07;;;;;;;;;;5058378;28;20213;-81
2023/01/18 13:42:26;;;;;;;15.73;4.30;;;;;;;;;;5060975;28;20240;-80
2023/01/18 13:45:13;;;;;;;12.70;6.20;;;;;;;;;;5059000;28;20201;-81
2023/01/18 13:47:57;;;;;;;20.53;8.33;;;;;;;;;;5070057;28;20205;-80
2023/01/18 13:50:51;;;;;;;23.03;8.20;;;;;;;;;;5052556;28;20204;-81
2023/01/18 13:53:27;;;;;;;18.47;6.63;;;;;;;;;;5041083;28;20294;-80
2023/01/18 13:56:22;;;;;;;18.40;5.33;;;;;;;;;;5055221;28;20200;-80
2023/01/18 13:58:59;;;;;;;13.23;4.97;;;;;;;;;;5058813;28;20247;-81
2023/01/18 14:01:31;;;;;;;20.47;7.57;;;;;;;;;;5060489;28;20212;-81
2023/01/18 14:04:05;;;;;;;19.33;6.30;;;;;;;;;;5069399;28;20296;-80
2023/01/18 14:06:35;;;;;;;15.37;6.53;;;;;;;;;;5052668;28;20197;-80
2023/01/18 14:09:06;;;;;;;40.03;19.70;;;;;;;;;;5069152;28;20640;-80
2023/01/18 14:11:35;;;;;;;12.37;7.40;;;;;;;;;;5060814;28;20258;-80
2023/01/18 14:14:08;;;;;;;23.67;7.50;;;;;;;;;;5052132;28;20292;-80
2023/01/18 14:16:54;;;;;;;16.60;6.13;;;;;;;;;;5064742;28;20243;-80
2023/01/18 14:19:21;;;;;;;25.70;7.27;;;;;;;;;;5072047;28;20220;-81
2023/01/18 14:22:00;;;;;;;24.57;9.93;;;;;;;;;;5058181;28;20642;-80
2023/01/18 14:24:38;;;;;;;35.77;16.83;;;;;;;;;;5060653;28;20216;-80
2023/01/18 14:27:08;;;;;;;79.37;35.67;;;;;;;;;;5065034;28;20212;-80
2023/01/18 14:29:42;;;;;;;47.33;20.47;;;;;;;;;;5064807;28;20266;-82
2023/01/18 14:32:17;;;;;;;34.57;13.03;;;;;;;;;;5047550;28;20208;-80
2023/01/18 14:34:43;;;;;;;27.03;15.97;;;;;;;;;;5071555;28;20215;-80
2023/01/18 14:37:27;;;;;;;24.03;9.50;;;;;;;;;;5061944;28;20201;-80
2023/01/18 14:40:16;;;;;;;20.03;8.57;;;;;;;;;;5064465;28;20202;-81
2023/01/18 14:42:47;;;;;;;19.83;5.70;;;;;;;;;;5053002;28;20733;-80
2023/01/18 14:45:21;;;;;;;35.57;8.37;;;;;;;;;;5071260;28;20204;-80
2023/01/18 14:47:50;;;;;;;23.00;4.53;;;;;;;;;;5054638;28;20213;-80
2023/01/18 14:50:20;;;;;;;10.70;4.97;;;;;;;;;;5062431;28;20258;-80
2023/01/18 14:52:48;;;;;;;18.57;4.30;;;;;;;;;;5053537;28;20673;-80
2023/01/18 14:55:29;;;;;;;18.00;5.10;;;;;;;;;;5062238;28;20296;-80
2023/01/18 14:58:08;;;;;;;12.97;4.03;;;;;;;;;;5063626;28;20237;-81
2023/01/18 15:00:42;;;;;;;19.30;4.23;;;;;;;;;;5051456;28;20208;-80
2023/01/18 15:03:13;;;;;;;18.70;4.50;;;;;;;;;;5051152;28;20205;-80
2023/01/18 15:05:40;;;;;;;16.60;4.90;;;;;;;;;;5054806;28;20197;-80
2023/01/18 15:08:08;;;;;;;21.60;5.43;;;;;;;;;;5062246;28;20232;-80
2023/01/18 15:10:38;;;;;;;30.20;5.47;;;;;;;;;;5050927;28;20197;-80
2023/01/18 15:13:05;;;;;;;23.13;6.20;;;;;;;;;;5048412;28;21626;-78
2023/01/18 15:15:36;;;;;;;21.43;5.53;;;;;;;;;;5066012;28;20200;-77
2023/01/18 15:18:09;;;;;;;24.33;5.60;;;;;;;;;;5068807;28;20312;-77
2023/01/18 15:20:36;;;;;;;19.60;6.30;;;;;;;;;;5057259;28;20207;-78
2023/01/18 15:23:04;;;;;;;30.17;5.97;;;;;;;;;;5069167;28;20562;-78
2023/01/18 15:25:32;;;;;;;17.47;4.37;;;;;;;;;;5052634;28;20216;-77
2023/01/18 15:28:03;;;;;;;23.67;5.63;;;;;;;;;;5070372;28;20207;-77
2023/01/18 15:30:34;;;;;;;17.20;5.53;;;;;;;;;;5070137;28;20201;-78